ADDS METAR Data INFO
IDs: Format: Raw Decoded Include TAF

Data at: 1552 UTC 12 Dec 2017

KBLU 121452Z AUTO 06003KT 10SM CLR 12/M22 A3042 RMK AO2 SLP253 T01171222 55002 TSNO
KBLU 121352Z AUTO 04003KT 10SM CLR 12/M22 A3042 RMK AO2 SLP250 T01221217 TSNO
KBLU 121252Z AUTO 09003KT 10SM CLR 12/M22 A3042 RMK AO2 SLP250 T01221222 TSNO
KBLU 121152Z AUTO 08003KT 10SM CLR 13/M22 A3043 RMK AO2 SLP245 T01331222 10139 20106 58005 TSNO
KBLU 121052Z AUTO 07004KT 10SM CLR 13/M22 A3043 RMK AO2 SLP247 T01281217 TSNO
KBLU 120952Z AUTO 06003KT 10SM CLR 13/M22 A3044 RMK AO2 SLP249 T01281217 TSNO
KBLU 120852Z AUTO 05003KT 10SM CLR 13/M20 A3044 RMK AO2 SLP245 T01281200 51001 TSNO
KBLU 120752Z AUTO 00000KT 10SM CLR 12/M20 A3044 RMK AO2 SLP247 T01221200 401890106 TSNO
KBLU 120652Z AUTO 00000KT 10SM CLR 13/M20 A3044 RMK AO2 SLP247 T01281200 TSNO
KBLU 120552Z AUTO 31003KT 10SM CLR 14/M17 A3044 RMK AO2 SLP250 T01391172 10150 20117 53007 TSNO
KBLU 120452Z AUTO 00000KT 10SM CLR 14/M17 A3043 RMK AO2 SLP248 T01391167 TSNO
KBLU 120352Z AUTO 05004KT 10SM CLR 13/M21 A3042 RMK AO2 SLP249 T01281206 TSNO
KBLU 120252Z AUTO 04007KT 10SM CLR 13/M21 A3042 RMK AO2 SLP249 T01281206 51004 TSNO
KBLU 120152Z AUTO 04005KT 10SM CLR 13/M15 A3042 RMK AO2 SLP249 T01331150 TSNO
KBLU 120052Z AUTO 05005KT 10SM CLR 13/M15 A3041 RMK AO2 SLP246 T01331150 TSNO
KBLU 112352Z AUTO 28003KT 10SM CLR 15/01 A3040 RMK AO2 SLP242 T01500006 10189 20144 56002 TSNO
KBLU 112252Z AUTO VRB03KT 10SM CLR 16/M01 A3040 RMK AO2 SLP238 T01611011 TSNO
KBLU 112152Z AUTO 00000KT 10SM CLR 16/M02 A3040 RMK AO2 SLP238 T01561022 TSNO
KBLU 112052Z AUTO 00000KT 10SM CLR 18/M11 A3041 RMK AO2 SLP232 T01831111 58010 TSNO
KBLU 111952Z AUTO 00000KT 10SM CLR 17/M11 A3043 RMK AO2 SLP245 T01721111 TSNO
KBLU 111852Z AUTO VRB04KT 10SM CLR 17/M13 A3044 RMK AO2 SLP252 T01671128 TSNO
KBLU 111752Z AUTO 04006KT 10SM CLR 14/M16 A3045 RMK AO2 SLP259 T01441161 10144 20111 51010 TSNO
KBLU 111652Z AUTO 04004KT 10SM CLR 13/M21 A3044 RMK AO2 SLP258 T01331211 TSNO
KBLU 111552Z AUTO 03004KT 10SM CLR 13/M27 A3042 RMK AO2 SLP254 T01331267 TSNO
KBLU 111452Z AUTO VRB04KT 10SM CLR 12/M27 A3041 RMK AO2 SLP253 T01221267 51002 TSNO
KBLU 111352Z AUTO 04005KT 10SM CLR 12/M26 A3041 RMK AO2 SLP253 T01171256 TSNO
KBLU 111252Z AUTO 03003KT 10SM CLR 12/M26 A3041 RMK AO2 SLP249 T01171256 TSNO
KBLU 111152Z AUTO 03004KT 10SM CLR 12/M24 A3040 RMK AO2 SLP239 T01171239 10128 20106 50005 TSNO
KBLU 111052Z AUTO 03004KT 10SM CLR 12/M23 A3041 RMK AO2 SLP239 T01171233 TSNO
KBLU 110952Z AUTO 04004KT 10SM CLR 12/M23 A3040 RMK AO2 SLP236 T01221233 TSNO
KBLU 110852Z AUTO 04006KT 10SM CLR 13/M23 A3039 RMK AO2 SLP228 T01281228 50001 TSNO
KBLU 110752Z AUTO 05006KT 10SM CLR 12/M21 A3040 RMK AO2 SLP234 T01171211 401780106 TSNO
KBLU 110652Z AUTO 05004KT 10SM CLR 11/M20 A3040 RMK AO2 SLP236 T01111200 TSNO
KBLU 110552Z AUTO VRB05KT 10SM CLR 11/M18 A3038 RMK AO2 SLP238 T01061178 10156 20106 53003 TSNO
KBLU 110452Z AUTO 06005KT 10SM CLR 11/M19 A3038 RMK AO2 SLP238 T01111189 TSNO